createdAt,value
2022-11-07T00:02:08.116Z,100500.29
2022-11-07T00:04:37.018Z,100477.02
2022-11-07T00:07:06.235Z,100469.01
2022-11-07T00:09:34.512Z,100465.87
2022-11-07T00:12:03.246Z,100463.64
2022-11-07T00:14:31.148Z,100475.85
2022-11-07T00:16:59.076Z,100511.27
2022-11-07T00:19:26.990Z,100524.92
2022-11-07T00:21:54.821Z,100508.48
2022-11-07T00:24:22.671Z,100505.45
2022-11-07T00:26:52.173Z,100505.05
2022-11-07T00:29:21.291Z,100502.52
2022-11-07T00:31:49.601Z,100491.67
2022-11-07T00:34:17.489Z,100480.27
2022-11-07T00:36:45.485Z,100479.00
2022-11-07T00:39:13.385Z,100474.03
2022-11-07T00:41:41.397Z,100473.84
2022-11-07T00:44:09.279Z,100466.76
2022-11-07T00:46:37.243Z,100457.65
2022-11-07T00:49:05.127Z,100459.11
2022-11-07T00:51:33.017Z,100459.30
2022-11-07T00:54:04.333Z,100456.57
2022-11-07T00:56:32.217Z,100457.23
2022-11-07T00:59:00.921Z,100457.34
2022-11-07T01:01:32.766Z,100450.51
2022-11-07T01:04:20.613Z,100456.98
2022-11-07T01:06:49.035Z,100461.02
2022-11-07T01:09:20.896Z,100470.46
2022-11-07T01:11:49.622Z,100472.48
2022-11-07T01:14:22.024Z,100467.55
2022-11-07T01:16:50.897Z,100462.48
2022-11-07T01:19:20.381Z,100458.75
2022-11-07T01:21:48.917Z,100459.23
2022-11-07T01:24:18.162Z,100456.85
2022-11-07T01:26:49.556Z,100454.77
2022-11-07T01:29:19.662Z,100453.89
2022-11-07T01:31:48.038Z,100458.88
2022-11-07T01:34:17.693Z,100456.22
2022-11-07T01:36:46.647Z,100454.23
2022-11-07T01:39:14.678Z,100453.35
2022-11-07T01:41:42.921Z,100450.02
2022-11-07T01:44:10.712Z,100442.21
2022-11-07T01:46:44.861Z,100440.14
2022-11-07T01:49:29.696Z,100435.27
2022-11-07T01:52:14.401Z,100426.52
2022-11-07T01:55:11.732Z,100427.13
2022-11-07T01:57:50.614Z,100421.06
2022-11-07T02:00:22.165Z,100416.94
2022-11-07T02:03:00.842Z,100409.83
2022-11-07T02:05:35.133Z,100408.09
2022-11-07T02:08:07.757Z,100401.06
2022-11-07T02:10:38.209Z,100402.23
2022-11-07T02:13:07.362Z,100395.02
2022-11-07T02:15:36.601Z,100392.98
2022-11-07T02:18:05.491Z,100394.50
2022-11-07T02:20:33.355Z,100396.13
2022-11-07T02:23:09.235Z,100395.92
2022-11-07T02:25:37.773Z,100395.93
2022-11-07T02:28:10.100Z,100394.73
2022-11-07T02:30:39.046Z,100387.24
2022-11-07T02:33:21.882Z,100389.72
2022-11-07T02:35:52.302Z,100391.33
2022-11-07T02:38:34.813Z,100385.65
2022-11-07T02:41:16.797Z,100387.65
2022-11-07T02:44:01.407Z,100382.84
2022-11-07T02:46:31.962Z,100381.95
2022-11-07T02:49:01.714Z,100382.54
2022-11-07T02:51:29.898Z,100384.86
2022-11-07T02:53:58.034Z,100385.29
2022-11-07T02:56:25.960Z,100381.93
2022-11-07T02:58:54.527Z,100384.11
2022-11-07T03:01:23.029Z,100379.83
2022-11-07T03:03:51.507Z,100381.33
2022-11-07T03:06:24.033Z,100380.67
2022-11-07T03:08:52.376Z,100380.39
2022-11-07T03:11:20.406Z,100382.40
2022-11-07T03:13:50.240Z,100374.70
2022-11-07T03:16:19.548Z,100374.10
2022-11-07T03:18:47.411Z,100376.34
2022-11-07T03:21:15.385Z,100379.39
2022-11-07T03:23:43.450Z,100381.23
2022-11-07T03:26:11.342Z,100383.98
2022-11-07T03:28:39.455Z,100386.04
2022-11-07T03:31:07.411Z,100385.83
2022-11-07T03:33:35.260Z,100387.28
2022-11-07T03:36:03.486Z,100383.96
2022-11-07T03:38:31.550Z,100389.23
2022-11-07T03:40:59.473Z,100385.11
2022-11-07T03:43:27.430Z,100383.09
2022-11-07T03:45:55.269Z,100382.23
2022-11-07T03:48:23.174Z,100375.10
2022-11-07T03:50:51.083Z,100373.36
2022-11-07T03:53:24.838Z,100377.45
2022-11-07T03:55:56.038Z,100378.65
2022-11-07T03:58:25.260Z,100377.98
2022-11-07T04:00:53.207Z,100377.84
2022-11-07T04:03:21.027Z,100379.80
2022-11-07T04:05:48.915Z,100380.13
2022-11-07T04:08:17.661Z,100382.20
2022-11-07T04:10:45.509Z,100378.86
2022-11-07T04:13:31.934Z,100374.54
2022-11-07T04:16:13.571Z,100375.45
2022-11-07T04:18:44.843Z,100374.65
2022-11-07T04:21:12.706Z,100372.33
2022-11-07T04:23:40.549Z,100368.55
2022-11-07T04:26:27.297Z,100366.65
2022-11-07T04:28:55.214Z,100360.95
2022-11-07T04:31:23.408Z,100359.08
2022-11-07T04:33:51.862Z,100353.80
2022-11-07T04:36:19.772Z,100355.08
2022-11-07T04:38:47.637Z,100359.20
2022-11-07T04:41:24.063Z,100353.64
2022-11-07T04:43:51.939Z,100349.56
2022-11-07T04:46:20.220Z,100351.84
2022-11-07T04:48:48.857Z,100354.21
2022-11-07T04:51:21.292Z,100353.38
2022-11-07T04:53:49.197Z,100349.29
2022-11-07T04:56:17.446Z,100356.54
2022-11-07T04:58:45.297Z,100352.09
2022-11-07T05:01:13.188Z,100350.40
2022-11-07T05:03:42.209Z,100347.40
2022-11-07T05:06:14.603Z,100347.55
2022-11-07T05:08:42.414Z,100349.40
2022-11-07T05:11:10.249Z,100352.09
2022-11-07T05:13:38.164Z,100350.83
2022-11-07T05:16:11.813Z,100352.07
2022-11-07T05:18:39.690Z,100350.92
2022-11-07T05:21:07.645Z,100355.66
2022-11-07T05:23:35.489Z,100352.26
2022-11-07T05:26:03.521Z,100347.69
2022-11-07T05:28:38.687Z,100350.81
2022-11-07T05:31:09.017Z,100354.70
2022-11-07T05:33:36.886Z,100351.31
2022-11-07T05:36:17.676Z,100347.75
2022-11-07T05:38:50.262Z,100345.42
2022-11-07T05:41:20.989Z,100351.41
2022-11-07T05:43:48.979Z,100355.52
2022-11-07T05:46:16.857Z,100357.13
2022-11-07T05:48:44.774Z,100363.67
2022-11-07T05:51:12.626Z,100372.83
2022-11-07T05:53:40.554Z,100368.48
2022-11-07T05:56:08.832Z,100375.20
2022-11-07T05:58:37.140Z,100373.40
2022-11-07T06:01:06.817Z,100373.94
2022-11-07T06:03:34.714Z,100379.48
2022-11-07T06:06:02.534Z,100382.09
2022-11-07T06:08:30.411Z,100379.50
2022-11-07T06:10:58.272Z,100379.33
2022-11-07T06:13:26.252Z,100384.27
2022-11-07T06:15:54.173Z,100392.01
2022-11-07T06:18:22.138Z,100392.13
2022-11-07T06:20:50.136Z,100388.48
2022-11-07T06:23:18.622Z,100387.33
2022-11-07T06:25:47.756Z,100387.49
2022-11-07T06:28:15.680Z,100389.59
2022-11-07T06:30:44.083Z,100392.53
2022-11-07T06:33:16.337Z,100392.95
2022-11-07T06:35:46.049Z,100397.81
2022-11-07T06:38:15.322Z,100397.27
2022-11-07T06:40:44.578Z,100400.65
2022-11-07T06:43:19.505Z,100403.45
2022-11-07T06:45:48.302Z,100405.05
2022-11-07T06:48:16.214Z,100405.90
2022-11-07T06:50:44.137Z,100407.32
2022-11-07T06:53:14.518Z,100408.22
2022-11-07T06:55:42.813Z,100412.94
2022-11-07T06:58:10.829Z,100414.33
2022-11-07T07:00:38.815Z,100412.02
2022-11-07T07:03:06.823Z,100414.55
2022-11-07T07:05:35.050Z,100420.29
2022-11-07T07:08:05.329Z,100427.54
2022-11-07T07:10:43.647Z,100429.30
2022-11-07T07:13:13.858Z,100431.16
2022-11-07T07:15:50.981Z,100433.98
2022-11-07T07:18:20.404Z,100439.15
2022-11-07T07:20:50.673Z,100441.40
2022-11-07T07:23:20.780Z,100442.44
2022-11-07T07:25:49.400Z,100440.79
2022-11-07T07:28:17.403Z,100437.68
2022-11-07T07:30:51.392Z,100437.58
2022-11-07T07:33:21.037Z,100438.27
2022-11-07T07:35:49.050Z,100435.17
2022-11-07T07:38:16.959Z,100437.77
2022-11-07T07:40:44.787Z,100434.87
2022-11-07T07:43:12.851Z,100434.61
2022-11-07T07:45:41.204Z,100435.34
2022-11-07T07:48:09.258Z,100436.41
2022-11-07T07:50:37.144Z,100435.43
2022-11-07T07:53:09.047Z,100430.09
2022-11-07T07:55:37.393Z,100435.89
2022-11-07T07:58:05.366Z,100435.27
2022-11-07T08:00:34.011Z,100428.84
2022-11-07T08:03:08.465Z,100431.21
2022-11-07T08:05:38.477Z,100434.86
2022-11-07T08:08:09.544Z,100431.02
2022-11-07T08:10:42.345Z,100424.45
2022-11-07T08:13:10.564Z,100430.23
2022-11-07T08:15:38.504Z,100427.45
2022-11-07T08:18:06.571Z,100429.38
2022-11-07T08:20:34.426Z,100428.98
2022-11-07T08:23:08.647Z,100423.87
2022-11-07T08:25:40.926Z,100426.48
2022-11-07T08:28:08.826Z,100427.48
2022-11-07T08:30:36.788Z,100430.30
2022-11-07T08:33:04.926Z,100438.20
2022-11-07T08:35:35.754Z,100440.09
2022-11-07T08:38:07.669Z,100446.83
2022-11-07T08:40:35.623Z,100449.55
2022-11-07T08:43:03.506Z,100447.95
2022-11-07T08:45:31.449Z,100450.34
2022-11-07T08:48:00.349Z,100450.72
2022-11-07T08:50:28.395Z,100450.70
2022-11-07T08:53:02.235Z,100451.21
2022-11-07T08:55:31.160Z,100452.98
2022-11-07T08:58:05.693Z,100457.42
2022-11-07T09:00:36.015Z,100466.45
2022-11-07T09:05:57.504Z,100458.32
2022-11-07T09:08:25.729Z,100460.43
2022-11-07T09:10:53.572Z,100465.77
2022-11-07T09:13:21.486Z,100467.23
2022-11-07T09:15:51.676Z,100474.90
2022-11-07T09:18:19.982Z,100477.77
2022-11-07T09:20:47.940Z,100476.70
2022-11-07T09:23:16.153Z,100472.19
2022-11-07T09:25:45.333Z,100477.40
2022-11-07T09:28:14.157Z,100480.50
2022-11-07T09:30:42.229Z,100484.52
2022-11-07T09:33:10.185Z,100486.63
2022-11-07T09:35:38.105Z,100491.63
2022-11-07T09:38:06.022Z,100490.75
2022-11-07T09:41:00.166Z,100500.34
2022-11-07T09:43:56.493Z,100502.85
2022-11-07T09:46:57.550Z,100507.73
2022-11-07T09:49:52.302Z,100512.60
2022-11-07T09:52:48.365Z,100517.11
2022-11-07T09:55:36.573Z,100516.70
2022-11-07T09:58:30.318Z,100516.58
2022-11-07T10:01:03.738Z,100516.85
2022-11-07T10:03:36.612Z,100512.39
2022-11-07T10:06:25.837Z,100516.77
2022-11-07T10:09:12.198Z,100512.79
2022-11-07T10:12:06.157Z,100515.32
2022-11-07T10:15:01.238Z,100511.32
2022-11-07T10:17:45.423Z,100514.19
2022-11-07T10:20:41.334Z,100513.53
2022-11-07T10:23:44.222Z,100517.92
2022-11-07T10:26:17.201Z,100517.02
2022-11-07T10:29:00.526Z,100519.80
2022-11-07T10:31:41.242Z,100519.70
2022-11-07T10:34:23.096Z,100516.31
2022-11-07T10:36:51.307Z,100518.57
2022-11-07T10:39:19.995Z,100520.83
2022-11-07T10:42:09.541Z,100519.70
2022-11-07T10:44:40.369Z,100522.59
2022-11-07T10:47:24.741Z,100520.15
2022-11-07T10:50:03.375Z,100519.77
2022-11-07T10:52:31.302Z,100515.13
2022-11-07T10:55:15.358Z,100510.23
2022-11-07T10:57:50.617Z,100510.02
2022-11-07T11:00:35.846Z,100514.79
2022-11-07T11:03:16.190Z,100508.12
2022-11-07T11:05:46.286Z,100504.59
2022-11-07T11:08:17.782Z,100505.81
2022-11-07T11:10:47.936Z,100502.14
2022-11-07T11:13:34.199Z,100502.73
2022-11-07T11:16:30.706Z,100505.33
2022-11-07T11:19:01.258Z,100500.35
2022-11-07T11:21:41.712Z,100497.48
2022-11-07T11:24:37.504Z,100496.73
2022-11-07T11:27:21.735Z,100498.30
2022-11-07T11:30:06.906Z,100497.15
2022-11-07T11:32:56.905Z,100499.44
2022-11-07T11:35:49.365Z,100504.17
2022-11-07T11:38:31.024Z,100508.27
2022-11-07T11:41:47.087Z,100506.45
2022-11-07T11:44:41.412Z,100504.68
2022-11-07T11:47:34.096Z,100502.94
2022-11-07T11:50:18.318Z,100512.23
2022-11-07T11:52:46.651Z,100510.38
2022-11-07T11:55:19.083Z,100503.75
2022-11-07T11:58:24.277Z,100504.95
2022-11-07T12:01:10.485Z,100501.45
2022-11-07T12:04:09.697Z,100502.73
2022-11-07T12:06:45.473Z,100493.75
2022-11-07T12:09:40.898Z,100500.48
2022-11-07T12:12:28.088Z,100499.74
2022-11-07T12:15:44.401Z,100502.00
2022-11-07T12:18:18.555Z,100504.02
2022-11-07T12:21:20.877Z,100499.86
2022-11-07T12:24:32.557Z,100496.84
2022-11-07T12:27:03.389Z,100495.06
2022-11-07T12:30:14.905Z,100499.06
2022-11-07T12:33:19.644Z,100500.15
2022-11-07T12:35:55.838Z,100503.34
2022-11-07T12:38:46.300Z,100509.02
2022-11-07T12:41:45.126Z,100504.30
2022-11-07T12:44:35.165Z,100504.60
2022-11-07T12:47:18.435Z,100507.40
2022-11-07T12:50:26.035Z,100506.48
2022-11-07T12:53:25.278Z,100504.27
2022-11-07T12:56:03.932Z,100502.59
2022-11-07T12:58:35.494Z,100502.63
2022-11-07T13:01:05.397Z,100496.52
2022-11-07T13:03:39.581Z,100489.11
2022-11-07T13:06:28.161Z,100487.84
2022-11-07T13:09:11.332Z,100488.04
2022-11-07T13:11:44.498Z,100490.23
2022-11-07T13:14:36.874Z,100488.73
2022-11-07T13:17:07.819Z,100492.73
2022-11-07T13:19:40.630Z,100488.39
2022-11-07T13:22:22.469Z,100492.29
2022-11-07T13:25:17.289Z,100489.02
2022-11-07T13:28:01.408Z,100493.99
2022-11-07T13:30:40.230Z,100492.55
2022-11-07T13:33:29.431Z,100492.91
2022-11-07T13:36:12.333Z,100496.51
2022-11-07T13:38:52.228Z,100494.06
2022-11-07T13:41:20.748Z,100494.81
2022-11-07T13:44:06.371Z,100499.48
2022-11-07T13:46:45.300Z,100502.87
2022-11-07T13:49:32.163Z,100505.05
2022-11-07T13:52:08.927Z,100506.42
2022-11-07T13:55:06.579Z,100503.47
2022-11-07T13:57:41.068Z,100500.23
2022-11-07T14:00:15.882Z,100507.05
2022-11-07T14:02:56.339Z,100515.16
2022-11-07T14:05:28.095Z,100520.98
2022-11-07T14:08:04.224Z,100520.94
2022-11-07T14:10:48.292Z,100512.03
2022-11-07T14:13:33.172Z,100511.69
2022-11-07T14:16:23.005Z,100514.27
2022-11-07T14:18:57.972Z,100525.11
2022-11-07T14:21:30.438Z,100523.16
2022-11-07T14:23:58.883Z,100524.31
2022-11-07T14:26:33.372Z,100522.03
2022-11-07T14:29:02.980Z,100517.02
2022-11-07T14:31:36.097Z,100515.86
2022-11-07T14:34:18.310Z,100513.86
2022-11-07T14:37:06.779Z,100513.04
2022-11-07T14:39:34.659Z,100511.13
2022-11-07T14:42:03.705Z,100508.36
2022-11-07T14:44:53.893Z,100510.77
2022-11-07T14:47:32.825Z,100511.45
2022-11-07T14:50:02.563Z,100508.00
2022-11-07T14:52:48.455Z,100509.73
2022-11-07T14:55:27.500Z,100507.09
2022-11-07T14:57:55.797Z,100504.80
2022-11-07T15:00:23.851Z,100507.73
2022-11-07T15:02:55.993Z,100506.92
2022-11-07T15:05:28.615Z,100504.22
2022-11-07T15:07:59.588Z,100504.53
2022-11-07T15:10:38.811Z,100498.13
2022-11-07T15:13:25.006Z,100496.52
2022-11-07T15:16:21.840Z,100497.05
2022-11-07T15:18:58.844Z,100498.77
2022-11-07T15:21:56.087Z,100497.76
2022-11-07T15:24:46.771Z,100494.52
2022-11-07T15:27:28.306Z,100502.52
2022-11-07T15:30:00.351Z,100505.60
2022-11-07T15:32:50.781Z,100500.89
2022-11-07T15:38:20.746Z,100496.83
2022-11-07T15:40:49.483Z,100496.92
2022-11-07T15:43:18.469Z,100498.13
2022-11-07T15:45:52.249Z,100497.64
2022-11-07T15:48:23.696Z,100503.38
2022-11-07T15:50:51.805Z,100501.34
2022-11-07T15:53:28.512Z,100497.71
2022-11-07T15:56:00.121Z,100500.55
2022-11-07T15:58:30.037Z,100499.94
2022-11-07T16:01:01.376Z,100502.22
2022-11-07T16:03:29.318Z,100505.55
2022-11-07T16:06:01.555Z,100503.12
2022-11-07T16:08:30.440Z,100504.88
2022-11-07T16:11:02.338Z,100508.48
2022-11-07T16:13:30.238Z,100506.67
2022-11-07T16:16:01.882Z,100506.29
2022-11-07T16:18:38.095Z,100512.69
2022-11-07T16:21:06.344Z,100511.80
2022-11-07T16:23:34.401Z,100510.24
2022-11-07T16:26:02.369Z,100512.56
2022-11-07T16:28:34.125Z,100511.61
2022-11-07T16:31:02.730Z,100515.16
2022-11-07T16:33:31.061Z,100513.35
2022-11-07T16:36:02.882Z,100514.47
2022-11-07T16:38:35.360Z,100510.39
2022-11-07T16:41:03.745Z,100503.95
2022-11-07T16:43:34.991Z,100507.36
2022-11-07T16:46:05.345Z,100512.61
2022-11-07T16:48:37.232Z,100515.10
2022-11-07T16:51:05.268Z,100517.59
2022-11-07T16:53:33.372Z,100517.03
2022-11-07T16:56:03.648Z,100520.27
2022-11-07T16:58:35.324Z,100519.89
2022-11-07T17:01:06.256Z,100524.57
2022-11-07T17:03:34.314Z,100517.80
2022-11-07T17:06:04.013Z,100522.46
2022-11-07T17:08:41.140Z,100528.31
2022-11-07T17:11:14.334Z,100529.96
2022-11-07T17:13:42.803Z,100530.92
2022-11-07T17:16:21.606Z,100527.91
2022-11-07T17:18:51.508Z,100528.51
2022-11-07T17:21:29.011Z,100530.48
2022-11-07T17:24:00.252Z,100530.55
2022-11-07T17:26:33.838Z,100530.89
2022-11-07T17:29:04.433Z,100533.23
2022-11-07T17:31:32.628Z,100530.52
2022-11-07T17:34:00.673Z,100527.41
2022-11-07T17:36:36.725Z,100521.33
2022-11-07T17:39:11.505Z,100524.36
2022-11-07T17:41:40.900Z,100528.31
2022-11-07T17:44:09.551Z,100531.21
2022-11-07T17:46:44.841Z,100535.20
2022-11-07T17:49:17.812Z,100536.23
2022-11-07T17:51:45.744Z,100534.94
2022-11-07T17:54:15.732Z,100537.02
2022-11-07T17:56:43.696Z,100535.84
2022-11-07T17:59:17.942Z,100534.02
2022-11-07T18:01:46.065Z,100534.27
2022-11-07T18:04:14.299Z,100532.35
2022-11-07T18:06:43.517Z,100533.30
2022-11-07T18:09:16.166Z,100533.08
2022-11-07T18:11:44.916Z,100536.64
2022-11-07T18:14:14.163Z,100539.24
2022-11-07T18:16:42.199Z,100540.64
2022-11-07T18:19:10.427Z,100540.11
2022-11-07T18:21:38.973Z,100534.88
2022-11-07T18:24:07.306Z,100537.40
2022-11-07T18:26:36.908Z,100534.15
2022-11-07T18:29:10.425Z,100533.95
2022-11-07T18:31:40.545Z,100532.26
2022-11-07T18:34:13.164Z,100536.39
2022-11-07T18:36:44.448Z,100533.66
2022-11-07T18:39:18.640Z,100536.67
2022-11-07T18:41:46.557Z,100539.37
2022-11-07T18:44:15.196Z,100539.16
2022-11-07T18:46:43.776Z,100538.81
2022-11-07T18:49:14.118Z,100542.13
2022-11-07T18:51:43.822Z,100546.52
2022-11-07T18:54:15.882Z,100547.37
2022-11-07T18:56:43.898Z,100545.23
2022-11-07T18:59:11.875Z,100548.90
2022-11-07T19:01:41.979Z,100547.29
2022-11-07T19:04:11.428Z,100545.65
2022-11-07T19:06:56.641Z,100544.61
2022-11-07T19:09:33.693Z,100543.34
2022-11-07T19:12:02.076Z,100545.08
2022-11-07T19:14:31.276Z,100546.36
2022-11-07T19:16:59.308Z,100542.27
2022-11-07T19:19:27.289Z,100546.05
2022-11-07T19:21:55.291Z,100544.48
2022-11-07T19:24:23.156Z,100546.84
2022-11-07T19:26:51.166Z,100543.95
2022-11-07T19:29:19.135Z,100543.38
2022-11-07T19:31:47.152Z,100546.27
2022-11-07T19:34:16.801Z,100549.22
2022-11-07T19:36:44.885Z,100547.48
2022-11-07T19:39:12.738Z,100552.23
2022-11-07T19:41:40.647Z,100552.98
2022-11-07T19:44:08.544Z,100552.02
2022-11-07T19:46:36.562Z,100555.70
2022-11-07T19:49:04.430Z,100556.86
2022-11-07T19:51:32.395Z,100561.27
2022-11-07T19:54:00.918Z,100560.10
2022-11-07T19:56:32.410Z,100558.73
2022-11-07T19:59:03.359Z,100561.41
2022-11-07T20:01:34.236Z,100563.48
2022-11-07T20:04:02.781Z,100562.19
2022-11-07T20:06:37.460Z,100565.83
2022-11-07T20:09:08.544Z,100566.48
2022-11-07T20:11:37.032Z,100569.58
2022-11-07T20:14:05.815Z,100570.29
2022-11-07T20:16:36.848Z,100572.92
2022-11-07T20:19:05.476Z,100572.16
2022-11-07T20:21:34.496Z,100575.30
2022-11-07T20:24:03.252Z,100575.91
2022-11-07T20:26:32.277Z,100573.98
2022-11-07T20:29:00.306Z,100573.44
2022-11-07T20:31:33.206Z,100574.73
2022-11-07T20:34:02.384Z,100578.58
2022-11-07T20:36:31.364Z,100576.76
2022-11-07T20:39:02.115Z,100576.91
2022-11-07T20:41:30.223Z,100577.48
2022-11-07T20:44:05.815Z,100579.14
2022-11-07T20:46:38.088Z,100577.46
2022-11-07T20:49:10.902Z,100575.90
2022-11-07T20:51:39.998Z,100572.02
2022-11-07T20:54:13.889Z,100575.02
2022-11-07T20:56:43.539Z,100573.09
2022-11-07T20:59:12.670Z,100575.40
2022-11-07T21:01:40.664Z,100575.43
2022-11-07T21:04:13.907Z,100574.88
2022-11-07T21:06:41.990Z,100574.02
2022-11-07T21:09:10.922Z,100572.44
2022-11-07T21:11:39.812Z,100576.98
2022-11-07T21:14:08.002Z,100575.65
2022-11-07T21:16:36.213Z,100580.15
2022-11-07T21:19:05.286Z,100574.30
2022-11-07T21:21:33.607Z,100576.73
2022-11-07T21:24:01.986Z,100576.09
2022-11-07T21:26:38.793Z,100573.83
2022-11-07T21:29:08.807Z,100573.30
2022-11-07T21:31:38.988Z,100580.32
2022-11-07T21:34:09.201Z,100577.69
2022-11-07T21:36:37.489Z,100580.87
2022-11-07T21:39:07.396Z,100576.78
2022-11-07T21:41:36.668Z,100577.73
2022-11-07T21:44:04.937Z,100581.53
2022-11-07T21:46:34.443Z,100571.02
2022-11-07T21:49:04.218Z,100579.11
2022-11-07T21:51:34.617Z,100579.50
2022-11-07T21:54:04.745Z,100582.44
2022-11-07T21:56:39.294Z,100579.55
2022-11-07T21:59:11.168Z,100582.11
2022-11-07T22:01:40.563Z,100581.22
2022-11-07T22:04:12.984Z,100580.36
2022-11-07T22:06:45.395Z,100580.43
2022-11-07T22:09:16.890Z,100581.80
2022-11-07T22:11:44.998Z,100578.59
2022-11-07T22:14:19.672Z,100577.08
2022-11-07T22:16:49.097Z,100581.42
2022-11-07T22:19:18.884Z,100579.13
2022-11-07T22:21:48.555Z,100579.37
2022-11-07T22:24:16.414Z,100578.77
2022-11-07T22:26:44.286Z,100582.73
2022-11-07T22:29:12.275Z,100584.22
2022-11-07T22:31:40.161Z,100585.84
2022-11-07T22:34:08.199Z,100585.21
2022-11-07T22:36:36.107Z,100589.80
2022-11-07T22:39:04.482Z,100588.19
2022-11-07T22:41:32.349Z,100594.64
2022-11-07T22:44:00.226Z,100593.08
2022-11-07T22:46:30.710Z,100589.54
2022-11-07T22:49:00.136Z,100590.38
2022-11-07T22:51:32.278Z,100586.98
2022-11-07T22:54:06.830Z,100591.39
2022-11-07T22:56:36.477Z,100592.19
2022-11-07T22:59:06.045Z,100594.55
2022-11-07T23:01:38.456Z,100596.01
2022-11-07T23:04:08.325Z,100592.81
2022-11-07T23:06:36.173Z,100595.72
2022-11-07T23:09:04.206Z,100601.83
2022-11-07T23:11:51.066Z,100603.08
2022-11-07T23:14:21.319Z,100601.67
2022-11-07T23:16:52.939Z,100604.86
2022-11-07T23:19:24.561Z,100602.40
2022-11-07T23:21:55.087Z,100603.94
2022-11-07T23:24:23.581Z,100599.59
2022-11-07T23:26:51.566Z,100602.40
2022-11-07T23:29:23.956Z,100598.33
2022-11-07T23:31:53.024Z,100600.89
2022-11-07T23:34:22.614Z,100602.02
2022-11-07T23:36:52.173Z,100601.05
2022-11-07T23:39:23.010Z,100601.41
2022-11-07T23:41:50.917Z,100606.59
2022-11-07T23:44:18.793Z,100609.14
2022-11-07T23:47:06.272Z,100604.87
2022-11-07T23:49:57.038Z,100606.44
2022-11-07T23:52:24.923Z,100600.39
2022-11-07T23:55:11.648Z,100602.20
2022-11-07T23:58:05.761Z,100602.77
